sensor_id;sensor_type;location;lat;lon;timestamp;temperature;humidity
28763;DHT22;15918;51.270;6.522;2023-02-11T00:00:57;9.20;70.40
28763;DHT22;15918;51.270;6.522;2023-02-11T00:03:23;9.20;70.40
28763;DHT22;15918;51.270;6.522;2023-02-11T00:06:03;9.20;70.40
28763;DHT22;15918;51.270;6.522;2023-02-11T00:08:28;9.20;70.40
28763;DHT22;15918;51.270;6.522;2023-02-11T00:10:55;9.10;70.40
28763;DHT22;15918;51.270;6.522;2023-02-11T00:13:22;9.10;70.40
28763;DHT22;15918;51.270;6.522;2023-02-11T00:15:47;9.10;70.40
28763;DHT22;15918;51.270;6.522;2023-02-11T00:18:13;9.10;70.40
28763;DHT22;15918;51.270;6.522;2023-02-11T00:20:39;9.20;70.50
28763;DHT22;15918;51.270;6.522;2023-02-11T00:23:04;9.10;70.40
28763;DHT22;15918;51.270;6.522;2023-02-11T00:25:30;9.10;70.40
28763;DHT22;15918;51.270;6.522;2023-02-11T00:27:56;9.20;70.50
28763;DHT22;15918;51.270;6.522;2023-02-11T00:30:22;9.10;70.40
28763;DHT22;15918;51.270;6.522;2023-02-11T00:32:48;9.10;70.40
28763;DHT22;15918;51.270;6.522;2023-02-11T00:35:13;9.10;70.50
28763;DHT22;15918;51.270;6.522;2023-02-11T00:37:39;9.10;70.50
28763;DHT22;15918;51.270;6.522;2023-02-11T00:40:05;9.10;70.50
28763;DHT22;15918;51.270;6.522;2023-02-11T00:42:31;9.10;70.50
28763;DHT22;15918;51.270;6.522;2023-02-11T00:44:57;9.10;70.50
28763;DHT22;15918;51.270;6.522;2023-02-11T00:47:22;9.10;70.60
28763;DHT22;15918;51.270;6.522;2023-02-11T00:49:48;9.10;70.50
28763;DHT22;15918;51.270;6.522;2023-02-11T00:52:13;9.10;70.50
28763;DHT22;15918;51.270;6.522;2023-02-11T00:54:39;9.10;70.50
28763;DHT22;15918;51.270;6.522;2023-02-11T00:57:05;9.10;70.50
28763;DHT22;15918;51.270;6.522;2023-02-11T00:59:30;9.10;70.50
28763;DHT22;15918;51.270;6.522;2023-02-11T01:01:56;9.10;70.40
28763;DHT22;15918;51.270;6.522;2023-02-11T01:04:21;9.10;70.40
28763;DHT22;15918;51.270;6.522;2023-02-11T01:06:47;9.10;70.40
28763;DHT22;15918;51.270;6.522;2023-02-11T01:09:13;9.10;70.40
28763;DHT22;15918;51.270;6.522;2023-02-11T01:11:41;9.10;70.50
28763;DHT22;15918;51.270;6.522;2023-02-11T01:14:07;9.20;70.50
28763;DHT22;15918;51.270;6.522;2023-02-11T01:16:32;9.10;70.40
28763;DHT22;15918;51.270;6.522;2023-02-11T01:18:58;9.10;70.40
28763;DHT22;15918;51.270;6.522;2023-02-11T01:21:24;9.10;70.40
28763;DHT22;15918;51.270;6.522;2023-02-11T01:23:51;9.10;70.40
28763;DHT22;15918;51.270;6.522;2023-02-11T01:26:16;9.10;70.50
28763;DHT22;15918;51.270;6.522;2023-02-11T01:28:42;9.00;70.50
28763;DHT22;15918;51.270;6.522;2023-02-11T01:31:08;9.00;70.50
28763;DHT22;15918;51.270;6.522;2023-02-11T01:33:33;9.00;70.50
28763;DHT22;15918;51.270;6.522;2023-02-11T01:36:03;9.00;70.50
28763;DHT22;15918;51.270;6.522;2023-02-11T01:38:29;9.00;70.50
28763;DHT22;15918;51.270;6.522;2023-02-11T01:41:01;9.00;70.60
28763;DHT22;15918;51.270;6.522;2023-02-11T01:43:30;9.00;70.70
28763;DHT22;15918;51.270;6.522;2023-02-11T01:46:34;9.10;70.80
28763;DHT22;15918;51.270;6.522;2023-02-11T01:51:49;9.00;70.80
28763;DHT22;15918;51.270;6.522;2023-02-11T01:54:19;9.10;70.80
28763;DHT22;15918;51.270;6.522;2023-02-11T01:57:05;9.00;70.90
28763;DHT22;15918;51.270;6.522;2023-02-11T02:02:42;9.00;70.90
28763;DHT22;15918;51.270;6.522;2023-02-11T02:05:21;9.00;71.00
28763;DHT22;15918;51.270;6.522;2023-02-11T02:08:20;9.00;71.10
28763;DHT22;15918;51.270;6.522;2023-02-11T02:10:49;9.00;71.10
28763;DHT22;15918;51.270;6.522;2023-02-11T02:13:18;9.00;71.20
28763;DHT22;15918;51.270;6.522;2023-02-11T02:16:15;9.00;71.20
28763;DHT22;15918;51.270;6.522;2023-02-11T02:24:32;9.00;71.20
28763;DHT22;15918;51.270;6.522;2023-02-11T02:35:23;9.00;71.30
28763;DHT22;15918;51.270;6.522;2023-02-11T02:37:56;9.00;71.30
28763;DHT22;15918;51.270;6.522;2023-02-11T02:40:32;9.00;71.40
28763;DHT22;15918;51.270;6.522;2023-02-11T02:43:00;9.00;71.30
28763;DHT22;15918;51.270;6.522;2023-02-11T02:45:27;9.00;71.40
28763;DHT22;15918;51.270;6.522;2023-02-11T02:47:53;9.00;71.30
28763;DHT22;15918;51.270;6.522;2023-02-11T02:50:22;9.00;71.30
28763;DHT22;15918;51.270;6.522;2023-02-11T02:53:07;9.00;71.40
28763;DHT22;15918;51.270;6.522;2023-02-11T02:58:24;9.00;71.40
28763;DHT22;15918;51.270;6.522;2023-02-11T03:01:20;9.00;71.40
28763;DHT22;15918;51.270;6.522;2023-02-11T03:04:16;9.00;71.40
28763;DHT22;15918;51.270;6.522;2023-02-11T03:09:43;9.00;71.40
28763;DHT22;15918;51.270;6.522;2023-02-11T03:12:11;9.00;71.30
28763;DHT22;15918;51.270;6.522;2023-02-11T03:14:39;9.00;71.50
28763;DHT22;15918;51.270;6.522;2023-02-11T03:17:06;9.00;71.40
28763;DHT22;15918;51.270;6.522;2023-02-11T03:19:43;9.00;71.50
28763;DHT22;15918;51.270;6.522;2023-02-11T03:22:19;9.00;71.50
28763;DHT22;15918;51.270;6.522;2023-02-11T03:24:46;9.00;71.50
28763;DHT22;15918;51.270;6.522;2023-02-11T03:29:54;9.00;71.50
28763;DHT22;15918;51.270;6.522;2023-02-11T03:32:27;9.00;71.60
28763;DHT22;15918;51.270;6.522;2023-02-11T03:35:09;9.00;71.60
28763;DHT22;15918;51.270;6.522;2023-02-11T03:37:44;9.00;71.70
28763;DHT22;15918;51.270;6.522;2023-02-11T03:40:16;9.00;71.70
28763;DHT22;15918;51.270;6.522;2023-02-11T03:42:49;9.00;71.70
28763;DHT22;15918;51.270;6.522;2023-02-11T03:45:18;9.00;71.70
28763;DHT22;15918;51.270;6.522;2023-02-11T03:50:51;9.10;71.80
28763;DHT22;15918;51.270;6.522;2023-02-11T03:53:19;9.00;71.90
28763;DHT22;15918;51.270;6.522;2023-02-11T03:55:46;9.00;71.80
28763;DHT22;15918;51.270;6.522;2023-02-11T03:58:13;9.00;71.90
28763;DHT22;15918;51.270;6.522;2023-02-11T04:00:40;9.00;71.90
28763;DHT22;15918;51.270;6.522;2023-02-11T04:03:07;9.00;71.90
28763;DHT22;15918;51.270;6.522;2023-02-11T04:05:33;9.00;71.90
28763;DHT22;15918;51.270;6.522;2023-02-11T04:07:59;9.10;72.00
28763;DHT22;15918;51.270;6.522;2023-02-11T04:10:25;9.10;72.00
28763;DHT22;15918;51.270;6.522;2023-02-11T04:12:51;9.10;72.00
28763;DHT22;15918;51.270;6.522;2023-02-11T04:15:16;9.10;72.20
28763;DHT22;15918;51.270;6.522;2023-02-11T04:17:42;9.00;72.10
28763;DHT22;15918;51.270;6.522;2023-02-11T04:20:08;9.00;72.10
28763;DHT22;15918;51.270;6.522;2023-02-11T04:22:35;9.10;72.20
28763;DHT22;15918;51.270;6.522;2023-02-11T04:25:01;9.10;72.20
28763;DHT22;15918;51.270;6.522;2023-02-11T04:27:26;9.00;72.20
28763;DHT22;15918;51.270;6.522;2023-02-11T04:29:52;9.10;72.20
28763;DHT22;15918;51.270;6.522;2023-02-11T04:32:18;9.10;72.30
28763;DHT22;15918;51.270;6.522;2023-02-11T04:34:44;9.00;72.30
28763;DHT22;15918;51.270;6.522;2023-02-11T04:37:09;9.00;72.30
28763;DHT22;15918;51.270;6.522;2023-02-11T04:39:35;9.00;72.40
28763;DHT22;15918;51.270;6.522;2023-02-11T04:42:00;9.00;72.50
28763;DHT22;15918;51.270;6.522;2023-02-11T04:44:26;9.10;72.60
28763;DHT22;15918;51.270;6.522;2023-02-11T04:46:52;9.00;72.50
28763;DHT22;15918;51.270;6.522;2023-02-11T04:49:18;9.00;73.30
28763;DHT22;15918;51.270;6.522;2023-02-11T04:51:43;9.00;72.60
28763;DHT22;15918;51.270;6.522;2023-02-11T04:54:10;9.00;72.70
28763;DHT22;15918;51.270;6.522;2023-02-11T04:56:35;9.10;72.80
28763;DHT22;15918;51.270;6.522;2023-02-11T04:59:01;9.10;72.80
28763;DHT22;15918;51.270;6.522;2023-02-11T05:01:27;9.00;72.80
28763;DHT22;15918;51.270;6.522;2023-02-11T05:03:52;9.00;72.80
28763;DHT22;15918;51.270;6.522;2023-02-11T05:06:18;9.10;72.80
28763;DHT22;15918;51.270;6.522;2023-02-11T05:08:44;9.10;72.80
28763;DHT22;15918;51.270;6.522;2023-02-11T05:11:18;9.10;72.80
28763;DHT22;15918;51.270;6.522;2023-02-11T05:13:44;9.10;72.90
28763;DHT22;15918;51.270;6.522;2023-02-11T05:16:10;9.10;72.90
28763;DHT22;15918;51.270;6.522;2023-02-11T05:18:40;9.10;73.00
28763;DHT22;15918;51.270;6.522;2023-02-11T05:21:11;9.10;73.10
28763;DHT22;15918;51.270;6.522;2023-02-11T05:23:38;9.10;73.10
28763;DHT22;15918;51.270;6.522;2023-02-11T05:26:04;9.10;73.20
28763;DHT22;15918;51.270;6.522;2023-02-11T05:28:29;9.10;73.10
28763;DHT22;15918;51.270;6.522;2023-02-11T05:30:55;9.10;73.20
28763;DHT22;15918;51.270;6.522;2023-02-11T05:33:21;9.10;73.20
28763;DHT22;15918;51.270;6.522;2023-02-11T05:35:46;9.10;73.20
28763;DHT22;15918;51.270;6.522;2023-02-11T05:38:12;9.10;73.20
28763;DHT22;15918;51.270;6.522;2023-02-11T05:40:38;9.10;73.30
28763;DHT22;15918;51.270;6.522;2023-02-11T05:43:04;9.10;73.30
28763;DHT22;15918;51.270;6.522;2023-02-11T05:45:29;9.10;73.30
28763;DHT22;15918;51.270;6.522;2023-02-11T05:47:56;9.10;73.40
28763;DHT22;15918;51.270;6.522;2023-02-11T05:50:21;9.10;73.30
28763;DHT22;15918;51.270;6.522;2023-02-11T05:52:47;9.10;73.40
28763;DHT22;15918;51.270;6.522;2023-02-11T05:55:12;9.10;73.30
28763;DHT22;15918;51.270;6.522;2023-02-11T05:57:38;9.10;73.30
28763;DHT22;15918;51.270;6.522;2023-02-11T06:00:04;9.10;73.20
28763;DHT22;15918;51.270;6.522;2023-02-11T06:02:30;9.10;73.20
28763;DHT22;15918;51.270;6.522;2023-02-11T06:04:55;9.10;73.20
28763;DHT22;15918;51.270;6.522;2023-02-11T06:07:21;9.10;73.20
28763;DHT22;15918;51.270;6.522;2023-02-11T06:09:47;9.10;73.20
28763;DHT22;15918;51.270;6.522;2023-02-11T06:12:12;9.10;73.20
28763;DHT22;15918;51.270;6.522;2023-02-11T06:14:38;9.10;73.20
28763;DHT22;15918;51.270;6.522;2023-02-11T06:17:03;9.10;73.30
28763;DHT22;15918;51.270;6.522;2023-02-11T06:19:29;9.10;73.30
28763;DHT22;15918;51.270;6.522;2023-02-11T06:21:55;9.10;73.40
28763;DHT22;15918;51.270;6.522;2023-02-11T06:24:21;9.10;74.10
28763;DHT22;15918;51.270;6.522;2023-02-11T06:26:47;9.10;73.40
28763;DHT22;15918;51.270;6.522;2023-02-11T06:29:12;9.10;73.40
28763;DHT22;15918;51.270;6.522;2023-02-11T06:31:38;9.10;73.40
28763;DHT22;15918;51.270;6.522;2023-02-11T06:34:05;9.10;73.40
28763;DHT22;15918;51.270;6.522;2023-02-11T06:36:30;9.10;74.10
28763;DHT22;15918;51.270;6.522;2023-02-11T06:38:56;9.10;73.40
28763;DHT22;15918;51.270;6.522;2023-02-11T06:41:22;9.10;73.40
28763;DHT22;15918;51.270;6.522;2023-02-11T06:43:48;9.10;73.50
28763;DHT22;15918;51.270;6.522;2023-02-11T06:46:13;9.10;73.60
28763;DHT22;15918;51.270;6.522;2023-02-11T06:48:39;9.10;73.60
28763;DHT22;15918;51.270;6.522;2023-02-11T06:51:07;9.10;73.60
28763;DHT22;15918;51.270;6.522;2023-02-11T06:53:35;9.10;73.60
28763;DHT22;15918;51.270;6.522;2023-02-11T06:56:06;9.10;73.60
28763;DHT22;15918;51.270;6.522;2023-02-11T06:58:32;9.10;73.60
28763;DHT22;15918;51.270;6.522;2023-02-11T07:00:58;9.10;73.60
28763;DHT22;15918;51.270;6.522;2023-02-11T07:03:24;9.10;73.70
28763;DHT22;15918;51.270;6.522;2023-02-11T07:05:50;9.10;73.60
28763;DHT22;15918;51.270;6.522;2023-02-11T07:08:16;9.10;73.70
28763;DHT22;15918;51.270;6.522;2023-02-11T07:10:41;9.10;73.80
28763;DHT22;15918;51.270;6.522;2023-02-11T07:13:07;9.10;73.80
28763;DHT22;15918;51.270;6.522;2023-02-11T07:15:32;9.10;73.80
28763;DHT22;15918;51.270;6.522;2023-02-11T07:17:58;9.10;73.80
28763;DHT22;15918;51.270;6.522;2023-02-11T07:20:24;9.10;73.90
28763;DHT22;15918;51.270;6.522;2023-02-11T07:22:50;9.10;73.90
28763;DHT22;15918;51.270;6.522;2023-02-11T07:25:16;9.10;73.90
28763;DHT22;15918;51.270;6.522;2023-02-11T07:27:41;9.10;73.90
28763;DHT22;15918;51.270;6.522;2023-02-11T07:30:07;9.10;73.90
28763;DHT22;15918;51.270;6.522;2023-02-11T07:32:33;9.10;74.00
28763;DHT22;15918;51.270;6.522;2023-02-11T07:34:59;9.20;74.00
28763;DHT22;15918;51.270;6.522;2023-02-11T07:37:24;9.10;74.00
28763;DHT22;15918;51.270;6.522;2023-02-11T07:39:50;9.10;74.10
28763;DHT22;15918;51.270;6.522;2023-02-11T07:42:15;9.10;74.20
28763;DHT22;15918;51.270;6.522;2023-02-11T07:44:41;9.10;74.10
28763;DHT22;15918;51.270;6.522;2023-02-11T07:47:06;9.10;74.10
28763;DHT22;15918;51.270;6.522;2023-02-11T07:49:32;9.20;74.10
28763;DHT22;15918;51.270;6.522;2023-02-11T07:51:57;9.20;74.20
28763;DHT22;15918;51.270;6.522;2023-02-11T07:54:23;9.10;74.10
28763;DHT22;15918;51.270;6.522;2023-02-11T07:56:49;9.20;74.20
28763;DHT22;15918;51.270;6.522;2023-02-11T07:59:14;9.20;74.20
28763;DHT22;15918;51.270;6.522;2023-02-11T08:01:40;9.20;74.20
28763;DHT22;15918;51.270;6.522;2023-02-11T08:04:05;9.10;74.20
28763;DHT22;15918;51.270;6.522;2023-02-11T08:06:33;9.20;74.30
28763;DHT22;15918;51.270;6.522;2023-02-11T08:09:06;9.20;74.40
28763;DHT22;15918;51.270;6.522;2023-02-11T08:11:33;9.20;74.40
28763;DHT22;15918;51.270;6.522;2023-02-11T08:13:59;9.20;74.50
28763;DHT22;15918;51.270;6.522;2023-02-11T08:16:25;9.20;74.50
28763;DHT22;15918;51.270;6.522;2023-02-11T08:18:52;9.20;74.60
28763;DHT22;15918;51.270;6.522;2023-02-11T08:21:19;9.20;74.60
28763;DHT22;15918;51.270;6.522;2023-02-11T08:23:45;9.20;74.60
28763;DHT22;15918;51.270;6.522;2023-02-11T08:26:14;9.20;74.60
28763;DHT22;15918;51.270;6.522;2023-02-11T08:28:42;9.20;74.60
28763;DHT22;15918;51.270;6.522;2023-02-11T08:31:11;9.20;74.50
28763;DHT22;15918;51.270;6.522;2023-02-11T08:33:38;9.20;74.50
28763;DHT22;15918;51.270;6.522;2023-02-11T08:36:10;9.20;74.60
28763;DHT22;15918;51.270;6.522;2023-02-11T08:38:36;9.20;74.60
28763;DHT22;15918;51.270;6.522;2023-02-11T08:41:02;9.20;74.60
28763;DHT22;15918;51.270;6.522;2023-02-11T08:43:27;9.20;74.70
28763;DHT22;15918;51.270;6.522;2023-02-11T08:45:53;9.20;74.70
28763;DHT22;15918;51.270;6.522;2023-02-11T08:48:19;9.20;74.80
28763;DHT22;15918;51.270;6.522;2023-02-11T08:50:45;9.20;74.80
28763;DHT22;15918;51.270;6.522;2023-02-11T08:53:10;9.20;74.80
28763;DHT22;15918;51.270;6.522;2023-02-11T08:55:36;9.20;74.80
28763;DHT22;15918;51.270;6.522;2023-02-11T08:58:02;9.20;74.90
28763;DHT22;15918;51.270;6.522;2023-02-11T09:00:31;9.20;74.90
28763;DHT22;15918;51.270;6.522;2023-02-11T09:02:56;9.20;74.90
28763;DHT22;15918;51.270;6.522;2023-02-11T09:05:22;9.30;75.00
28763;DHT22;15918;51.270;6.522;2023-02-11T09:07:48;9.30;75.00
28763;DHT22;15918;51.270;6.522;2023-02-11T09:10:13;9.30;74.90
28763;DHT22;15918;51.270;6.522;2023-02-11T09:12:39;9.30;75.00
28763;DHT22;15918;51.270;6.522;2023-02-11T09:15:05;9.30;75.00
28763;DHT22;15918;51.270;6.522;2023-02-11T09:17:31;9.30;75.00
28763;DHT22;15918;51.270;6.522;2023-02-11T09:19:59;9.40;75.10
28763;DHT22;15918;51.270;6.522;2023-02-11T09:22:24;9.30;75.10
28763;DHT22;15918;51.270;6.522;2023-02-11T09:24:50;9.30;75.10
28763;DHT22;15918;51.270;6.522;2023-02-11T09:27:15;9.30;75.80
28763;DHT22;15918;51.270;6.522;2023-02-11T09:29:41;9.30;75.10
28763;DHT22;15918;51.270;6.522;2023-02-11T09:32:06;9.30;75.10
28763;DHT22;15918;51.270;6.522;2023-02-11T09:34:32;9.40;75.20
28763;DHT22;15918;51.270;6.522;2023-02-11T09:36:57;9.30;75.20
28763;DHT22;15918;51.270;6.522;2023-02-11T09:39:23;9.40;75.20
28763;DHT22;15918;51.270;6.522;2023-02-11T09:44:34;9.40;75.40
28763;DHT22;15918;51.270;6.522;2023-02-11T09:47:02;9.40;75.30
28763;DHT22;15918;51.270;6.522;2023-02-11T09:49:40;9.40;75.30
28763;DHT22;15918;51.270;6.522;2023-02-11T09:54:57;9.40;75.30
28763;DHT22;15918;51.270;6.522;2023-02-11T09:57:28;9.40;75.30
28763;DHT22;15918;51.270;6.522;2023-02-11T09:59:56;9.40;75.40
28763;DHT22;15918;51.270;6.522;2023-02-11T10:02:35;9.40;75.40
28763;DHT22;15918;51.270;6.522;2023-02-11T10:05:12;9.40;75.40
28763;DHT22;15918;51.270;6.522;2023-02-11T10:08:01;9.40;75.40
28763;DHT22;15918;51.270;6.522;2023-02-11T10:10:45;9.40;75.40
28763;DHT22;15918;51.270;6.522;2023-02-11T10:16:00;9.50;75.50
28763;DHT22;15918;51.270;6.522;2023-02-11T10:19:02;9.40;75.50
28763;DHT22;15918;51.270;6.522;2023-02-11T10:21:35;9.50;75.50
28763;DHT22;15918;51.270;6.522;2023-02-11T10:24:07;9.40;75.50
28763;DHT22;15918;51.270;6.522;2023-02-11T10:26:35;9.50;75.60
28763;DHT22;15918;51.270;6.522;2023-02-11T10:29:10;9.50;75.60
28763;DHT22;15918;51.270;6.522;2023-02-11T10:31:40;9.50;75.50
28763;DHT22;15918;51.270;6.522;2023-02-11T10:34:10;9.50;75.50
28763;DHT22;15918;51.270;6.522;2023-02-11T10:36:41;9.50;75.50
28763;DHT22;15918;51.270;6.522;2023-02-11T10:39:21;9.50;75.50
28763;DHT22;15918;51.270;6.522;2023-02-11T10:41:54;9.50;75.40
28763;DHT22;15918;51.270;6.522;2023-02-11T10:44:33;9.50;75.50
28763;DHT22;15918;51.270;6.522;2023-02-11T10:47:14;9.50;75.50
28763;DHT22;15918;51.270;6.522;2023-02-11T10:49:44;9.50;75.50
28763;DHT22;15918;51.270;6.522;2023-02-11T10:52:21;9.50;75.50
28763;DHT22;15918;51.270;6.522;2023-02-11T10:55:02;9.60;75.60
28763;DHT22;15918;51.270;6.522;2023-02-11T10:57:37;9.60;75.70
28763;DHT22;15918;51.270;6.522;2023-02-11T11:00:20;9.60;75.60
28763;DHT22;15918;51.270;6.522;2023-02-11T11:02:56;9.60;75.60
28763;DHT22;15918;51.270;6.522;2023-02-11T11:05:31;9.60;75.60
28763;DHT22;15918;51.270;6.522;2023-02-11T11:07:59;9.60;75.70
28763;DHT22;15918;51.270;6.522;2023-02-11T11:11:05;9.60;75.80
28763;DHT22;15918;51.270;6.522;2023-02-11T11:13:37;9.60;75.70
28763;DHT22;15918;51.270;6.522;2023-02-11T11:18:39;9.60;75.80
28763;DHT22;15918;51.270;6.522;2023-02-11T11:21:11;9.60;75.80
28763;DHT22;15918;51.270;6.522;2023-02-11T11:23:38;9.60;75.80
28763;DHT22;15918;51.270;6.522;2023-02-11T11:26:11;9.60;75.80
28763;DHT22;15918;51.270;6.522;2023-02-11T11:31:23;9.70;75.90
28763;DHT22;15918;51.270;6.522;2023-02-11T11:33:50;9.70;75.90
28763;DHT22;15918;51.270;6.522;2023-02-11T11:36:29;9.70;75.90
28763;DHT22;15918;51.270;6.522;2023-02-11T11:38:59;9.70;75.90
28763;DHT22;15918;51.270;6.522;2023-02-11T11:41:29;9.70;75.90
28763;DHT22;15918;51.270;6.522;2023-02-11T11:44:02;9.70;75.90
28763;DHT22;15918;51.270;6.522;2023-02-11T11:46:38;9.70;75.90
28763;DHT22;15918;51.270;6.522;2023-02-11T11:54:45;9.80;75.90
28763;DHT22;15918;51.270;6.522;2023-02-11T11:57:16;9.70;75.90
28763;DHT22;15918;51.270;6.522;2023-02-11T11:59:43;9.70;75.90
28763;DHT22;15918;51.270;6.522;2023-02-11T12:10:37;9.80;75.80
28763;DHT22;15918;51.270;6.522;2023-02-11T12:16:03;9.80;75.70
28763;DHT22;15918;51.270;6.522;2023-02-11T12:19:02;9.80;75.80
28763;DHT22;15918;51.270;6.522;2023-02-11T12:22:16;9.80;75.60
28763;DHT22;15918;51.270;6.522;2023-02-11T12:27:44;9.80;75.60
28763;DHT22;15918;51.270;6.522;2023-02-11T12:33:02;9.90;75.70
28763;DHT22;15918;51.270;6.522;2023-02-11T12:44:29;9.80;75.80
28763;DHT22;15918;51.270;6.522;2023-02-11T12:47:24;9.90;75.90
28763;DHT22;15918;51.270;6.522;2023-02-11T12:55:39;9.90;75.90
28763;DHT22;15918;51.270;6.522;2023-02-11T12:58:17;9.90;76.00
28763;DHT22;15918;51.270;6.522;2023-02-11T13:01:02;9.90;76.00
28763;DHT22;15918;51.270;6.522;2023-02-11T13:03:39;9.90;76.00
28763;DHT22;15918;51.270;6.522;2023-02-11T13:06:10;9.90;76.00
28763;DHT22;15918;51.270;6.522;2023-02-11T13:08:47;9.90;76.00
28763;DHT22;15918;51.270;6.522;2023-02-11T13:11:20;10.00;76.00
28763;DHT22;15918;51.270;6.522;2023-02-11T13:13:51;10.00;76.00
28763;DHT22;15918;51.270;6.522;2023-02-11T13:16:44;10.00;76.10
28763;DHT22;15918;51.270;6.522;2023-02-11T13:19:28;10.00;76.00
28763;DHT22;15918;51.270;6.522;2023-02-11T13:22:04;10.00;76.10
28763;DHT22;15918;51.270;6.522;2023-02-11T13:30:29;10.00;76.20
28763;DHT22;15918;51.270;6.522;2023-02-11T13:35:33;10.10;76.20
28763;DHT22;15918;51.270;6.522;2023-02-11T13:38:04;10.10;76.10
28763;DHT22;15918;51.270;6.522;2023-02-11T13:40:38;10.10;76.10
28763;DHT22;15918;51.270;6.522;2023-02-11T13:43:06;10.10;76.00
28763;DHT22;15918;51.270;6.522;2023-02-11T13:45:45;10.10;76.10
28763;DHT22;15918;51.270;6.522;2023-02-11T13:48:28;10.10;76.10
28763;DHT22;15918;51.270;6.522;2023-02-11T13:50:59;10.10;76.00
28763;DHT22;15918;51.270;6.522;2023-02-11T13:53:26;10.10;76.10
28763;DHT22;15918;51.270;6.522;2023-02-11T13:56:59;10.10;76.00
28763;DHT22;15918;51.270;6.522;2023-02-11T13:58:50;10.10;75.90
28763;DHT22;15918;51.270;6.522;2023-02-11T14:01:37;10.20;76.00
28763;DHT22;15918;51.270;6.522;2023-02-11T14:04:25;10.10;75.90
28763;DHT22;15918;51.270;6.522;2023-02-11T14:07:30;10.20;75.90
28763;DHT22;15918;51.270;6.522;2023-02-11T14:13:33;10.20;75.90
28763;DHT22;15918;51.270;6.522;2023-02-11T14:16:09;10.20;75.90
28763;DHT22;15918;51.270;6.522;2023-02-11T14:23:42;10.20;76.10
28763;DHT22;15918;51.270;6.522;2023-02-11T14:29:07;10.30;76.00
28763;DHT22;15918;51.270;6.522;2023-02-11T14:31:44;10.30;75.90
28763;DHT22;15918;51.270;6.522;2023-02-11T14:35:28;10.30;76.00
28763;DHT22;15918;51.270;6.522;2023-02-11T14:40:33;10.30;76.00
28763;DHT22;15918;51.270;6.522;2023-02-11T14:43:27;10.30;76.00
28763;DHT22;15918;51.270;6.522;2023-02-11T14:45:56;10.30;75.90
28763;DHT22;15918;51.270;6.522;2023-02-11T14:48:31;10.30;76.00
28763;DHT22;15918;51.270;6.522;2023-02-11T14:51:06;10.30;76.10
28763;DHT22;15918;51.270;6.522;2023-02-11T14:53:33;10.40;76.10
28763;DHT22;15918;51.270;6.522;2023-02-11T14:55:59;10.40;76.10
28763;DHT22;15918;51.270;6.522;2023-02-11T14:58:29;10.40;76.20
28763;DHT22;15918;51.270;6.522;2023-02-11T15:00:56;10.40;76.10
28763;DHT22;15918;51.270;6.522;2023-02-11T15:05:58;10.40;76.10
28763;DHT22;15918;51.270;6.522;2023-02-11T15:08:24;10.40;76.10
28763;DHT22;15918;51.270;6.522;2023-02-11T15:10:50;10.40;76.10
28763;DHT22;15918;51.270;6.522;2023-02-11T15:13:20;10.40;76.10
28763;DHT22;15918;51.270;6.522;2023-02-11T15:16:02;10.40;76.00
28763;DHT22;15918;51.270;6.522;2023-02-11T15:18:36;10.40;76.00
28763;DHT22;15918;51.270;6.522;2023-02-11T15:21:04;10.40;75.90
28763;DHT22;15918;51.270;6.522;2023-02-11T15:23:30;10.40;76.00
28763;DHT22;15918;51.270;6.522;2023-02-11T15:25:56;10.50;76.00
28763;DHT22;15918;51.270;6.522;2023-02-11T15:28:28;10.50;76.00
28763;DHT22;15918;51.270;6.522;2023-02-11T15:30:57;10.50;75.90
28763;DHT22;15918;51.270;6.522;2023-02-11T15:33:24;10.50;75.90
28763;DHT22;15918;51.270;6.522;2023-02-11T15:35:50;10.40;75.90
28763;DHT22;15918;51.270;6.522;2023-02-11T15:38:16;10.50;75.90
28763;DHT22;15918;51.270;6.522;2023-02-11T15:41:00;10.50;75.90
28763;DHT22;15918;51.270;6.522;2023-02-11T15:43:43;10.50;75.80
28763;DHT22;15918;51.270;6.522;2023-02-11T15:46:13;10.50;75.90
28763;DHT22;15918;51.270;6.522;2023-02-11T15:48:43;10.50;75.90
28763;DHT22;15918;51.270;6.522;2023-02-11T15:51:32;10.50;75.90
28763;DHT22;15918;51.270;6.522;2023-02-11T15:54:07;10.50;75.80
28763;DHT22;15918;51.270;6.522;2023-02-11T15:56:41;10.50;76.00
28763;DHT22;15918;51.270;6.522;2023-02-11T15:59:28;10.50;76.00
28763;DHT22;15918;51.270;6.522;2023-02-11T16:02:03;10.50;75.80
28763;DHT22;15918;51.270;6.522;2023-02-11T16:04:29;10.50;76.00
28763;DHT22;15918;51.270;6.522;2023-02-11T16:06:55;10.50;76.00
28763;DHT22;15918;51.270;6.522;2023-02-11T16:09:33;10.50;76.00
28763;DHT22;15918;51.270;6.522;2023-02-11T16:12:02;10.50;76.00
28763;DHT22;15918;51.270;6.522;2023-02-11T16:19:46;10.50;76.00
28763;DHT22;15918;51.270;6.522;2023-02-11T16:22:19;10.50;76.00
28763;DHT22;15918;51.270;6.522;2023-02-11T16:24:47;10.50;76.00
28763;DHT22;15918;51.270;6.522;2023-02-11T16:27:26;10.50;76.00
28763;DHT22;15918;51.270;6.522;2023-02-11T16:29:54;10.50;76.00
28763;DHT22;15918;51.270;6.522;2023-02-11T16:32:23;10.50;76.10
28763;DHT22;15918;51.270;6.522;2023-02-11T16:34:49;10.50;76.00
28763;DHT22;15918;51.270;6.522;2023-02-11T16:37:15;10.50;76.10
28763;DHT22;15918;51.270;6.522;2023-02-11T16:39:41;10.50;76.00
28763;DHT22;15918;51.270;6.522;2023-02-11T16:42:07;10.50;76.00
28763;DHT22;15918;51.270;6.522;2023-02-11T16:44:33;10.50;76.00
28763;DHT22;15918;51.270;6.522;2023-02-11T16:46:59;10.50;76.00
28763;DHT22;15918;51.270;6.522;2023-02-11T16:49:36;10.50;76.00
28763;DHT22;15918;51.270;6.522;2023-02-11T16:52:12;10.50;76.00
28763;DHT22;15918;51.270;6.522;2023-02-11T16:54:38;10.60;76.00
28763;DHT22;15918;51.270;6.522;2023-02-11T16:57:16;10.50;76.00
28763;DHT22;15918;51.270;6.522;2023-02-11T16:59:43;10.50;75.90
28763;DHT22;15918;51.270;6.522;2023-02-11T17:02:17;10.50;76.00
28763;DHT22;15918;51.270;6.522;2023-02-11T17:04:44;10.50;76.00
28763;DHT22;15918;51.270;6.522;2023-02-11T17:07:11;10.50;76.00
28763;DHT22;15918;51.270;6.522;2023-02-11T17:09:36;10.50;76.00
28763;DHT22;15918;51.270;6.522;2023-02-11T17:12:02;10.50;76.00
28763;DHT22;15918;51.270;6.522;2023-02-11T17:14:28;10.50;76.00
28763;DHT22;15918;51.270;6.522;2023-02-11T17:16:54;10.50;76.00
28763;DHT22;15918;51.270;6.522;2023-02-11T17:19:20;10.50;76.00
28763;DHT22;15918;51.270;6.522;2023-02-11T17:21:48;10.50;76.10
28763;DHT22;15918;51.270;6.522;2023-02-11T17:24:15;10.50;76.10
28763;DHT22;15918;51.270;6.522;2023-02-11T17:26:42;10.50;76.10
28763;DHT22;15918;51.270;6.522;2023-02-11T17:29:13;10.50;76.10
28763;DHT22;15918;51.270;6.522;2023-02-11T17:31:39;10.50;76.10
28763;DHT22;15918;51.270;6.522;2023-02-11T17:34:05;10.50;76.10
28763;DHT22;15918;51.270;6.522;2023-02-11T17:36:31;10.50;76.10
28763;DHT22;15918;51.270;6.522;2023-02-11T17:38:58;10.50;76.10
28763;DHT22;15918;51.270;6.522;2023-02-11T17:41:24;10.50;76.20
28763;DHT22;15918;51.270;6.522;2023-02-11T17:43:50;10.50;76.10
28763;DHT22;15918;51.270;6.522;2023-02-11T17:46:15;10.50;76.10
28763;DHT22;15918;51.270;6.522;2023-02-11T17:48:41;10.50;76.20
28763;DHT22;15918;51.270;6.522;2023-02-11T17:53:47;10.50;76.20
28763;DHT22;15918;51.270;6.522;2023-02-11T17:56:13;10.50;76.30